createdAt,value
2018-04-10T00:00:38.200Z,99308.67
2018-04-10T00:01:40.674Z,99303.36
2018-04-10T00:02:43.172Z,99307.50
2018-04-10T00:03:45.642Z,99300.17
2018-04-10T00:04:48.126Z,99302.94
2018-04-10T00:05:50.634Z,99300.13
2018-04-10T00:06:53.116Z,99297.95
2018-04-10T00:07:55.630Z,99306.82
2018-04-10T00:08:58.117Z,99309.00
2018-04-10T00:10:00.591Z,99303.68
2018-04-10T00:11:03.072Z,99307.67
2018-04-10T00:12:05.567Z,99299.94
2018-04-10T00:13:08.042Z,99293.86
2018-04-10T00:14:10.543Z,99306.28
2018-04-10T00:15:13.054Z,99309.84
2018-04-10T00:16:15.554Z,99305.46
2018-04-10T00:17:18.064Z,99303.52
2018-04-10T00:18:20.749Z,99309.05
2018-04-10T00:19:23.251Z,99310.98
2018-04-10T00:20:25.750Z,99309.05
2018-04-10T00:21:28.232Z,99300.77
2018-04-10T00:22:30.737Z,99309.45
2018-04-10T00:23:33.239Z,99308.46
2018-04-10T00:24:35.731Z,99314.17
2018-04-10T00:25:38.237Z,99311.41
2018-04-10T00:26:40.738Z,99305.46
2018-04-10T00:27:43.255Z,99311.23
2018-04-10T00:28:45.736Z,99310.43
2018-04-10T00:29:48.228Z,99311.17
2018-04-10T00:30:50.694Z,99311.41
2018-04-10T00:31:53.178Z,99310.98
2018-04-10T00:32:55.690Z,99315.72
2018-04-10T00:33:58.190Z,99318.48
2018-04-10T00:35:00.672Z,99312.16
2018-04-10T00:36:03.170Z,99311.36
2018-04-10T00:37:05.662Z,99311.36
2018-04-10T00:38:08.168Z,99309.98
2018-04-10T00:39:10.657Z,99319.84
2018-04-10T00:40:13.138Z,99316.67
2018-04-10T00:41:15.640Z,99321.80
2018-04-10T00:42:18.124Z,99324.36
2018-04-10T00:43:20.628Z,99323.19
2018-04-10T00:44:23.159Z,99320.02
2018-04-10T00:45:25.659Z,99327.91
2018-04-10T00:46:28.160Z,99325.16
2018-04-10T00:47:30.659Z,99327.52
2018-04-10T00:48:33.154Z,99328.10
2018-04-10T00:49:35.619Z,99323.16
2018-04-10T00:50:38.127Z,99323.34
2018-04-10T00:51:40.594Z,99322.37
2018-04-10T00:52:43.080Z,99317.22
2018-04-10T00:53:45.580Z,99324.52
2018-04-10T00:54:48.084Z,99319.00
2018-04-10T00:55:50.590Z,99316.42
2018-04-10T00:56:53.068Z,99321.55
2018-04-10T00:57:55.553Z,99316.61
2018-04-10T00:58:58.052Z,99312.66
2018-04-10T01:00:00.540Z,99311.27
2018-04-10T01:01:03.020Z,99313.83
2018-04-10T01:02:05.505Z,99318.77
2018-04-10T01:03:08.011Z,99313.62
2018-04-10T01:04:10.528Z,99310.45
2018-04-10T01:05:13.012Z,99311.44
2018-04-10T01:06:15.474Z,99316.17
2018-04-10T01:07:17.960Z,99312.02
2018-04-10T01:08:20.431Z,99313.41
2018-04-10T01:09:22.946Z,99314.39
2018-04-10T01:10:25.450Z,99322.48
2018-04-10T01:11:27.944Z,99314.41
2018-04-10T01:12:30.420Z,99312.83
2018-04-10T01:13:32.932Z,99310.27
2018-04-10T01:14:35.442Z,99313.43
2018-04-10T01:15:37.928Z,99317.57
2018-04-10T01:16:40.458Z,99318.34
2018-04-10T01:17:42.948Z,99319.73
2018-04-10T01:18:45.479Z,99317.78
2018-04-10T01:19:47.961Z,99315.42
2018-04-10T01:20:50.482Z,99325.30
2018-04-10T01:21:52.967Z,99316.42
2018-04-10T01:22:55.461Z,99322.93
2018-04-10T01:23:57.965Z,99316.02
2018-04-10T01:25:00.460Z,99324.31
2018-04-10T01:26:02.943Z,99320.38
2018-04-10T01:27:05.440Z,99317.22
2018-04-10T01:28:07.914Z,99315.63
2018-04-10T01:29:10.463Z,99318.39
2018-04-10T01:30:12.962Z,99320.55
2018-04-10T01:31:15.483Z,99319.35
2018-04-10T01:32:17.999Z,99320.73
2018-04-10T01:33:20.492Z,99323.09
2018-04-10T01:34:22.978Z,99324.27
2018-04-10T01:35:25.486Z,99329.80
2018-04-10T01:36:27.976Z,99327.61
2018-04-10T01:37:30.470Z,99324.06
2018-04-10T01:38:32.940Z,99321.88
2018-04-10T01:39:35.466Z,99325.23
2018-04-10T01:40:37.942Z,99322.86
2018-04-10T01:41:40.447Z,99326.80
2018-04-10T01:42:42.926Z,99327.20
2018-04-10T01:43:45.438Z,99317.13
2018-04-10T01:44:47.940Z,99316.14
2018-04-10T01:45:50.402Z,99317.13
2018-04-10T01:46:52.889Z,99311.80
2018-04-10T01:47:55.388Z,99309.19
2018-04-10T01:48:58.058Z,99310.97
2018-04-10T01:50:00.584Z,99313.92
2018-04-10T01:51:03.068Z,99306.41
2018-04-10T01:52:05.578Z,99311.74
2018-04-10T01:53:08.083Z,99306.80
2018-04-10T01:54:10.580Z,99307.59
2018-04-10T01:55:13.088Z,99306.22
2018-04-10T01:56:15.565Z,99309.96
2018-04-10T01:57:18.039Z,99311.34
2018-04-10T01:58:20.514Z,99310.76
2018-04-10T01:59:23.010Z,99310.17
2018-04-10T02:00:25.601Z,99305.23
2018-04-10T02:01:28.084Z,99305.82
2018-04-10T02:02:30.564Z,99308.98
2018-04-10T02:03:33.046Z,99303.45
2018-04-10T02:04:35.526Z,99304.44
2018-04-10T02:05:38.028Z,99302.27
2018-04-10T02:06:40.565Z,99304.65
2018-04-10T02:07:43.050Z,99307.20
2018-04-10T02:08:45.536Z,99303.64
2018-04-10T02:17:12.956Z,99311.11
2018-04-10T02:18:32.892Z,99318.81
2018-04-10T02:19:52.918Z,99317.62
2018-04-10T02:21:13.011Z,99314.86
2018-04-10T02:22:15.839Z,99318.78
2018-04-10T02:23:18.335Z,99315.23
2018-04-10T02:24:20.820Z,99326.47
2018-04-10T02:25:23.328Z,99317.20
2018-04-10T02:26:25.816Z,99324.69
2018-04-10T02:27:28.324Z,99320.55
2018-04-10T02:28:30.808Z,99322.11
2018-04-10T02:29:33.306Z,99316.59
2018-04-10T02:30:35.778Z,99315.61
2018-04-10T02:31:38.266Z,99317.76
2018-04-10T02:32:40.773Z,99306.13
2018-04-10T02:33:43.276Z,99304.16
2018-04-10T02:34:45.759Z,99305.73
2018-04-10T02:35:48.270Z,99304.94
2018-04-10T02:36:50.771Z,99301.59
2018-04-10T02:37:53.277Z,99303.73
2018-04-10T02:38:55.770Z,99309.08
2018-04-10T02:39:58.265Z,99300.98
2018-04-10T02:41:00.738Z,99306.11
2018-04-10T02:42:03.252Z,99306.91
2018-04-10T02:43:05.766Z,99305.70
2018-04-10T02:44:08.272Z,99306.11
2018-04-10T02:45:10.777Z,99302.95
2018-04-10T02:46:13.260Z,99300.19
2018-04-10T02:47:15.758Z,99300.37
2018-04-10T02:48:18.269Z,99303.13
2018-04-10T02:49:20.754Z,99309.05
2018-04-10T02:50:23.238Z,99306.69
2018-04-10T02:51:25.822Z,99299.59
2018-04-10T02:52:28.308Z,99307.11
2018-04-10T02:53:30.818Z,99303.95
2018-04-10T02:54:33.327Z,99308.70
2018-04-10T02:55:36.147Z,99307.72
2018-04-10T02:56:38.625Z,99305.55
2018-04-10T02:57:41.133Z,99303.97
2018-04-10T02:58:43.635Z,99308.52
2018-04-10T02:59:46.126Z,99309.89
2018-04-10T03:00:48.594Z,99312.66
2018-04-10T03:01:51.072Z,99313.05
2018-04-10T03:02:53.569Z,99311.67
2018-04-10T03:03:56.068Z,99303.18
2018-04-10T03:04:58.560Z,99308.52
2018-04-10T03:06:01.043Z,99310.48
2018-04-10T03:07:03.551Z,99314.03
2018-04-10T03:08:06.040Z,99318.18
2018-04-10T03:09:08.536Z,99314.23
2018-04-10T03:10:11.024Z,99319.75
2018-04-10T03:11:13.600Z,99320.55
2018-04-10T03:12:16.080Z,99309.09
2018-04-10T03:13:18.573Z,99305.94
2018-04-10T03:14:21.062Z,99311.06
2018-04-10T03:15:23.549Z,99314.23
2018-04-10T03:16:26.034Z,99317.38
2018-04-10T03:17:28.520Z,99315.42
2018-04-10T03:18:31.004Z,99316.42
2018-04-10T03:19:33.529Z,99309.33
2018-04-10T03:20:36.031Z,99309.94
2018-04-10T03:21:38.520Z,99308.56
2018-04-10T03:22:40.986Z,99314.69
2018-04-10T03:23:43.503Z,99304.62
2018-04-10T03:24:45.986Z,99304.84
2018-04-10T03:25:48.487Z,99307.59
2018-04-10T03:26:50.986Z,99305.82
2018-04-10T03:27:53.502Z,99303.25
2018-04-10T03:28:56.001Z,99310.15
2018-04-10T03:29:58.498Z,99310.76
2018-04-10T03:31:00.992Z,99312.14
2018-04-10T03:32:03.480Z,99318.84
2018-04-10T03:33:05.963Z,99318.25
2018-04-10T03:34:08.444Z,99328.90
2018-04-10T03:35:10.995Z,99321.59
2018-04-10T03:36:13.472Z,99320.41
2018-04-10T03:37:15.956Z,99318.23
2018-04-10T03:38:18.448Z,99324.55
2018-04-10T03:39:20.941Z,99320.98
2018-04-10T03:40:23.472Z,99323.75
2018-04-10T03:41:25.980Z,99332.62
2018-04-10T03:42:28.460Z,99328.48
2018-04-10T03:43:30.962Z,99326.48
2018-04-10T03:44:33.479Z,99332.41
2018-04-10T03:45:35.988Z,99326.89
2018-04-10T03:46:38.457Z,99328.85
2018-04-10T03:47:40.944Z,99334.16
2018-04-10T03:48:43.456Z,99329.22
2018-04-10T03:49:45.960Z,99330.61
2018-04-10T03:50:48.494Z,99331.59
2018-04-10T03:51:50.962Z,99334.75
2018-04-10T03:52:53.426Z,99340.86
2018-04-10T03:53:55.895Z,99334.14
2018-04-10T03:54:58.363Z,99338.47
2018-04-10T03:56:00.845Z,99333.34
2018-04-10T03:57:03.341Z,99333.93
2018-04-10T03:58:05.838Z,99337.27
2018-04-10T03:59:08.329Z,99338.84
2018-04-10T04:00:10.831Z,99338.63
2018-04-10T04:01:13.353Z,99336.86
2018-04-10T04:02:15.844Z,99343.52
2018-04-10T04:03:18.340Z,99341.34
2018-04-10T04:04:20.828Z,99341.34
2018-04-10T04:05:23.325Z,99335.42
2018-04-10T04:06:25.818Z,99341.52
2018-04-10T04:07:28.305Z,99338.77
2018-04-10T04:08:30.788Z,99331.86
2018-04-10T04:10:35.047Z,99332.84
2018-04-10T04:11:37.547Z,99333.40
2018-04-10T04:12:40.037Z,99335.36
2018-04-10T04:13:42.536Z,99331.63
2018-04-10T04:14:45.024Z,99329.45
2018-04-10T04:15:47.504Z,99337.73
2018-04-10T04:17:01.753Z,99332.39
2018-04-10T04:18:04.251Z,99329.63
2018-04-10T04:19:18.528Z,99327.45
2018-04-10T04:21:40.492Z,99337.12
2018-04-10T04:22:42.988Z,99334.55
2018-04-10T04:23:45.458Z,99335.31
2018-04-10T04:24:47.936Z,99336.11
2018-04-10T04:25:50.530Z,99341.82
2018-04-10T04:26:53.061Z,99340.63
2018-04-10T04:27:55.565Z,99337.28
2018-04-10T04:28:58.038Z,99339.25
2018-04-10T04:30:00.509Z,99333.72
2018-04-10T04:31:02.974Z,99338.08
2018-04-10T04:32:05.484Z,99334.73
2018-04-10T04:33:07.969Z,99343.41
2018-04-10T04:34:10.458Z,99340.65
2018-04-10T04:35:12.941Z,99338.69
2018-04-10T04:36:15.438Z,99340.47
2018-04-10T04:37:17.936Z,99337.70
2018-04-10T04:38:20.402Z,99335.12
2018-04-10T04:39:22.871Z,99328.63
2018-04-10T04:40:25.352Z,99330.61
2018-04-10T04:41:27.834Z,99329.45
2018-04-10T04:42:30.340Z,99331.81
2018-04-10T04:43:32.821Z,99330.23
2018-04-10T04:44:35.308Z,99331.06
2018-04-10T04:45:37.799Z,99326.92
2018-04-10T04:46:40.276Z,99326.73
2018-04-10T04:47:42.790Z,99326.34
2018-04-10T04:48:45.272Z,99324.77
2018-04-10T04:49:47.790Z,99323.18
2018-04-10T04:50:50.277Z,99320.42
2018-04-10T04:51:52.763Z,99322.36
2018-04-10T04:52:55.269Z,99318.98
2018-04-10T04:53:57.760Z,99322.91
2018-04-10T04:55:00.225Z,99321.72
2018-04-10T04:56:02.719Z,99328.63
2018-04-10T04:57:05.245Z,99321.91
2018-04-10T04:58:07.760Z,99322.09
2018-04-10T04:59:10.255Z,99327.80
2018-04-10T05:00:12.736Z,99325.44
2018-04-10T05:01:15.222Z,99330.96
2018-04-10T05:02:17.718Z,99325.47
2018-04-10T05:03:20.224Z,99326.66
2018-04-10T05:04:22.694Z,99325.09
2018-04-10T05:05:25.176Z,99327.08
2018-04-10T05:06:27.696Z,99332.26
2018-04-10T05:07:30.249Z,99335.81
2018-04-10T05:08:32.771Z,99340.02
2018-04-10T05:09:35.314Z,99339.61
2018-04-10T05:10:37.811Z,99341.02
2018-04-10T05:11:40.317Z,99343.99
2018-04-10T05:12:42.782Z,99339.05
2018-04-10T05:13:45.266Z,99337.86
2018-04-10T05:14:47.735Z,99350.09
2018-04-10T05:15:50.224Z,99348.13
2018-04-10T05:16:52.732Z,99348.72
2018-04-10T05:17:55.316Z,99348.72
2018-04-10T05:18:57.801Z,99351.48
2018-04-10T05:20:00.280Z,99354.03
2018-04-10T05:21:02.779Z,99350.47
2018-04-10T05:22:05.255Z,99354.80
2018-04-10T05:23:07.954Z,99355.36
2018-04-10T05:24:10.480Z,99360.48
2018-04-10T05:25:12.954Z,99356.73
2018-04-10T05:26:15.450Z,99351.98
2018-04-10T05:27:17.960Z,99354.34
2018-04-10T05:28:20.436Z,99355.73
2018-04-10T05:29:22.930Z,99355.33
2018-04-10T05:30:25.394Z,99356.47
2018-04-10T05:31:27.872Z,99348.83
2018-04-10T05:32:30.346Z,99360.87
2018-04-10T05:33:32.843Z,99356.00
2018-04-10T05:34:35.355Z,99364.47
2018-04-10T05:35:37.861Z,99365.47
2018-04-10T05:36:40.370Z,99359.16
2018-04-10T05:37:42.861Z,99362.10
2018-04-10T05:38:45.370Z,99373.36
2018-04-10T05:39:47.881Z,99373.44
2018-04-10T05:40:50.382Z,99368.08
2018-04-10T05:41:52.912Z,99369.98
2018-04-10T05:42:55.414Z,99368.00
2018-04-10T05:43:57.898Z,99372.30
2018-04-10T05:45:00.489Z,99368.95
2018-04-10T05:46:02.987Z,99369.36
2018-04-10T05:47:05.517Z,99370.73
2018-04-10T05:48:07.999Z,99364.02
2018-04-10T05:49:10.637Z,99366.41
2018-04-10T05:50:13.186Z,99369.54
2018-04-10T05:51:15.666Z,99367.92
2018-04-10T05:52:18.146Z,99369.22
2018-04-10T05:53:20.661Z,99369.78
2018-04-10T05:54:23.138Z,99368.16
2018-04-10T05:55:25.630Z,99371.69
2018-04-10T05:56:28.149Z,99368.71
2018-04-10T05:57:30.652Z,99374.81
2018-04-10T05:58:33.163Z,99376.41
2018-04-10T05:59:35.652Z,99376.94
2018-04-10T06:00:38.231Z,99376.64
2018-04-10T06:01:40.799Z,99386.46
2018-04-10T06:02:43.303Z,99387.59
2018-04-10T06:03:45.826Z,99383.98
2018-04-10T06:04:48.328Z,99386.72
2018-04-10T06:05:50.851Z,99387.05
2018-04-10T06:06:53.332Z,99389.36
2018-04-10T06:07:55.895Z,99388.53
2018-04-10T06:08:58.431Z,99388.50
2018-04-10T06:10:00.907Z,99391.84
2018-04-10T06:11:03.410Z,99399.66
2018-04-10T06:12:05.917Z,99394.52
2018-04-10T06:13:08.444Z,99394.05
2018-04-10T06:14:10.927Z,99397.00
2018-04-10T06:15:13.503Z,99397.33
2018-04-10T06:16:16.012Z,99401.63
2018-04-10T06:17:18.504Z,99406.93
2018-04-10T06:18:20.996Z,99405.12
2018-04-10T06:19:23.516Z,99407.81
2018-04-10T06:20:25.995Z,99407.75
2018-04-10T06:21:28.519Z,99408.12
2018-04-10T06:22:31.008Z,99404.53
2018-04-10T06:23:33.489Z,99410.59
2018-04-10T06:24:35.998Z,99409.00
2018-04-10T06:25:38.504Z,99411.15
2018-04-10T06:26:41.053Z,99415.47
2018-04-10T06:27:43.596Z,99416.05
2018-04-10T06:28:46.103Z,99421.75
2018-04-10T06:29:48.618Z,99415.44
2018-04-10T06:30:51.098Z,99420.16
2018-04-10T06:31:53.595Z,99420.34
2018-04-10T06:32:56.083Z,99424.66
2018-04-10T06:33:58.562Z,99420.89
2018-04-10T06:35:01.038Z,99430.63
2018-04-10T06:36:03.533Z,99429.83
2018-04-10T06:37:06.036Z,99430.37
2018-04-10T06:38:08.528Z,99433.28
2018-04-10T06:39:11.037Z,99438.11
2018-04-10T06:40:13.528Z,99437.17
2018-04-10T06:41:16.042Z,99441.06
2018-04-10T06:42:18.572Z,99445.19
2018-04-10T06:43:21.061Z,99440.48
2018-04-10T06:44:23.585Z,99441.06
2018-04-10T06:45:26.071Z,99443.23
2018-04-10T06:46:28.565Z,99440.91
2018-04-10T06:47:31.069Z,99435.43
2018-04-10T06:48:33.572Z,99439.81
2018-04-10T06:49:36.060Z,99434.38
2018-04-10T06:50:38.550Z,99433.42
2018-04-10T06:51:41.370Z,99435.23
2018-04-10T06:52:43.886Z,99436.87
2018-04-10T06:53:46.388Z,99436.50
2018-04-10T06:54:48.896Z,99439.69
2018-04-10T06:55:51.511Z,99435.59
2018-04-10T06:56:53.990Z,99433.62
2018-04-10T06:57:56.503Z,99433.88
2018-04-10T06:58:58.989Z,99435.28
2018-04-10T07:00:01.472Z,99437.86
2018-04-10T07:01:03.947Z,99431.95
2018-04-10T07:02:06.429Z,99447.73
2018-04-10T07:03:09.636Z,99442.43
2018-04-10T07:04:12.197Z,99445.41
2018-04-10T07:05:14.863Z,99448.38
2018-04-10T07:06:17.353Z,99445.83
2018-04-10T07:07:19.878Z,99442.50
2018-04-10T07:08:22.370Z,99440.14
2018-04-10T07:09:24.861Z,99447.83
2018-04-10T07:10:27.370Z,99443.69
2018-04-10T07:11:29.860Z,99445.86
2018-04-10T07:12:32.350Z,99459.08
2018-04-10T07:13:34.995Z,99460.27
2018-04-10T07:14:37.489Z,99454.75
2018-04-10T07:15:39.989Z,99452.80
2018-04-10T07:16:42.504Z,99454.57
2018-04-10T07:17:44.993Z,99456.78
2018-04-10T07:18:47.497Z,99453.44
2018-04-10T07:19:49.985Z,99454.23
2018-04-10T07:20:52.521Z,99452.06
2018-04-10T07:21:55.004Z,99450.50
2018-04-10T07:22:57.654Z,99446.36
2018-04-10T07:24:00.229Z,99452.27
2018-04-10T07:25:02.754Z,99453.08
2018-04-10T07:26:05.332Z,99451.87
2018-04-10T07:27:08.252Z,99457.79
2018-04-10T07:28:10.903Z,99464.75
2018-04-10T07:29:13.461Z,99474.41
2018-04-10T07:30:15.957Z,99471.64
2018-04-10T07:31:18.608Z,99472.84
2018-04-10T07:32:21.110Z,99476.80
2018-04-10T07:33:23.613Z,99483.51
2018-04-10T07:34:26.117Z,99481.55
2018-04-10T07:35:28.620Z,99481.95
2018-04-10T07:36:31.166Z,99484.34
2018-04-10T07:37:33.715Z,99484.16
2018-04-10T07:38:36.201Z,99481.40
2018-04-10T07:39:38.740Z,99480.63
2018-04-10T07:40:41.221Z,99482.81
2018-04-10T07:41:43.713Z,99478.48
2018-04-10T07:42:46.209Z,99474.17
2018-04-10T07:43:48.700Z,99476.56
2018-04-10T07:44:51.215Z,99476.56
2018-04-10T07:45:53.706Z,99478.38
2018-04-10T07:46:56.209Z,99479.17
2018-04-10T07:47:58.803Z,99478.00
2018-04-10T07:49:01.290Z,99482.39
2018-04-10T07:50:03.778Z,99479.45
2018-04-10T07:51:06.288Z,99482.02
2018-04-10T07:52:08.782Z,99482.42
2018-04-10T07:53:11.282Z,99486.78
2018-04-10T07:54:13.770Z,99481.47
2018-04-10T07:55:16.416Z,99489.56
2018-04-10T07:56:18.898Z,99482.89
2018-04-10T07:57:21.430Z,99479.33
2018-04-10T07:58:23.921Z,99479.95
2018-04-10T07:59:26.449Z,99484.48
2018-04-10T08:00:28.943Z,99482.92
2018-04-10T08:01:31.411Z,99481.75
2018-04-10T08:02:33.896Z,99477.61
2018-04-10T08:03:36.401Z,99480.77
2018-04-10T08:04:38.896Z,99484.73
2018-04-10T08:05:41.551Z,99482.34
2018-04-10T08:06:44.037Z,99491.05
2018-04-10T08:07:46.571Z,99489.48
2018-04-10T08:08:49.073Z,99495.80
2018-04-10T08:09:51.665Z,99492.64
2018-04-10T08:10:54.288Z,99495.80
2018-04-10T08:11:56.759Z,99494.23
2018-04-10T08:12:59.252Z,99490.89
2018-04-10T08:14:01.737Z,99498.19
2018-04-10T08:15:04.343Z,99496.81
2018-04-10T08:16:06.853Z,99498.19
2018-04-10T08:17:09.323Z,99501.34
2018-04-10T08:18:11.824Z,99495.03
2018-04-10T08:19:14.341Z,99501.75
2018-04-10T08:20:16.818Z,99493.66
2018-04-10T08:21:19.312Z,99501.93
2018-04-10T08:22:21.811Z,99502.33
2018-04-10T08:23:24.291Z,99505.27
2018-04-10T08:24:26.758Z,99503.31
2018-04-10T08:25:29.226Z,99510.61
2018-04-10T08:26:31.714Z,99504.87
2018-04-10T08:27:34.197Z,99506.83
2018-04-10T08:28:36.688Z,99509.99
2018-04-10T08:29:39.178Z,99516.89
2018-04-10T08:30:41.646Z,99515.91
2018-04-10T08:31:44.159Z,99513.73
2018-04-10T08:32:46.670Z,99514.53
2018-04-10T08:33:49.189Z,99506.25
2018-04-10T08:34:51.749Z,99517.29
2018-04-10T08:35:54.314Z,99509.01
2018-04-10T08:36:56.817Z,99509.59
2018-04-10T08:37:59.328Z,99509.59
2018-04-10T08:39:01.889Z,99503.27
2018-04-10T08:40:04.375Z,99509.19
2018-04-10T08:41:06.884Z,99508.80
2018-04-10T08:42:09.464Z,99510.97
2018-04-10T08:43:11.939Z,99510.17
2018-04-10T08:44:14.411Z,99512.34
2018-04-10T08:45:16.880Z,99506.44
2018-04-10T08:46:19.373Z,99512.53
2018-04-10T08:47:22.044Z,99510.36
2018-04-10T08:48:24.532Z,99512.53
2018-04-10T08:49:27.057Z,99516.67
2018-04-10T08:50:29.596Z,99510.36
2018-04-10T08:51:32.060Z,99505.82
2018-04-10T08:52:34.569Z,99507.59
2018-04-10T08:53:37.071Z,99507.78
2018-04-10T08:54:39.583Z,99513.70
2018-04-10T08:55:42.059Z,99513.52
2018-04-10T08:56:44.550Z,99514.09
2018-04-10T08:57:47.075Z,99511.55
2018-04-10T08:58:49.561Z,99506.22
2018-04-10T08:59:52.048Z,99515.30
2018-04-10T09:00:54.537Z,99513.12
2018-04-10T09:01:57.007Z,99511.73
2018-04-10T09:02:59.542Z,99514.28
2018-04-10T09:04:02.102Z,99512.10
2018-04-10T09:05:04.895Z,99518.23
2018-04-10T09:06:07.377Z,99519.22
2018-04-10T09:07:09.882Z,99519.80
2018-04-10T09:08:12.395Z,99518.02
2018-04-10T09:09:14.907Z,99518.45
2018-04-10T09:10:17.379Z,99518.67
2018-04-10T09:11:19.851Z,99516.13
2018-04-10T09:12:22.355Z,99518.30
2018-04-10T09:13:24.864Z,99518.70
2018-04-10T09:14:27.349Z,99514.34
2018-04-10T09:15:29.852Z,99517.10
2018-04-10T09:16:32.327Z,99516.13
2018-04-10T09:17:34.873Z,99519.86
2018-04-10T09:18:37.396Z,99520.84
2018-04-10T09:19:39.888Z,99514.75
2018-04-10T09:20:42.362Z,99511.80
2018-04-10T09:21:44.842Z,99511.62
2018-04-10T09:22:47.327Z,99509.29
2018-04-10T09:23:49.859Z,99511.47
2018-04-10T09:24:52.349Z,99505.55
2018-04-10T09:25:54.842Z,99514.22
2018-04-10T09:26:57.310Z,99509.11
2018-04-10T09:27:59.802Z,99506.09
2018-04-10T09:29:02.314Z,99507.66
2018-04-10T09:30:04.797Z,99511.80
2018-04-10T09:31:07.290Z,99505.30
2018-04-10T09:32:09.805Z,99507.27
2018-04-10T09:33:12.308Z,99511.98
2018-04-10T09:34:14.838Z,99514.75
2018-04-10T09:35:17.323Z,99518.88
2018-04-10T09:36:19.833Z,99519.86
2018-04-10T09:37:22.320Z,99516.70
2018-04-10T09:38:24.843Z,99522.22
2018-04-10T09:39:27.345Z,99521.83
2018-04-10T09:40:29.830Z,99522.01
2018-04-10T09:41:32.302Z,99523.20
2018-04-10T09:42:34.800Z,99521.83
2018-04-10T09:43:37.317Z,99524.19
2018-04-10T09:44:39.818Z,99519.06
2018-04-10T09:45:42.312Z,99521.42
2018-04-10T09:46:44.793Z,99521.42
2018-04-10T09:47:47.273Z,99519.65
2018-04-10T09:48:49.771Z,99519.43
2018-04-10T09:49:52.291Z,99522.59
2018-04-10T09:50:54.812Z,99526.14
2018-04-10T09:51:57.280Z,99525.75
2018-04-10T09:52:59.754Z,99523.57
2018-04-10T09:54:02.249Z,99526.33
2018-04-10T09:55:04.760Z,99520.02
2018-04-10T09:56:07.249Z,99519.22
2018-04-10T09:57:09.801Z,99516.45
2018-04-10T09:58:12.304Z,99524.34
2018-04-10T09:59:14.784Z,99522.56
2018-04-10T10:01:51.374Z,99524.91
2018-04-10T10:02:53.865Z,99516.64
2018-04-10T10:03:56.345Z,99521.76
2018-04-10T10:04:58.924Z,99519.00
2018-04-10T10:06:01.405Z,99517.77
2018-04-10T10:07:03.896Z,99516.20
2018-04-10T10:08:06.371Z,99511.86
2018-04-10T10:09:08.851Z,99512.83
2018-04-10T10:10:11.449Z,99515.41
2018-04-10T10:11:13.980Z,99517.44
2018-04-10T10:12:16.469Z,99513.33
2018-04-10T10:13:18.967Z,99518.00
2018-04-10T10:14:21.468Z,99516.34
2018-04-10T10:15:23.993Z,99522.70
2018-04-10T10:16:26.483Z,99520.37
2018-04-10T10:17:28.966Z,99515.48
2018-04-10T10:18:31.453Z,99518.63
2018-04-10T10:19:33.937Z,99520.45
2018-04-10T10:20:36.534Z,99522.38
2018-04-10T10:21:39.035Z,99523.27
2018-04-10T10:22:41.524Z,99522.56
2018-04-10T10:23:44.025Z,99520.28
2018-04-10T10:24:46.491Z,99521.16
2018-04-10T10:25:48.990Z,99524.12
2018-04-10T10:26:51.470Z,99521.20
2018-04-10T10:27:53.960Z,99524.58
2018-04-10T10:28:56.454Z,99519.42
2018-04-10T10:29:58.959Z,99520.98
2018-04-10T10:31:01.465Z,99523.94
2018-04-10T10:32:03.953Z,99522.74
2018-04-10T10:33:06.418Z,99523.33
2018-04-10T10:34:08.887Z,99517.78
2018-04-10T10:35:11.358Z,99522.88
2018-04-10T10:36:13.875Z,99525.64
2018-04-10T10:37:16.342Z,99520.67
2018-04-10T10:38:18.880Z,99520.66
2018-04-10T10:39:21.364Z,99516.69
2018-04-10T10:40:23.880Z,99525.91
2018-04-10T10:41:26.400Z,99528.25
2018-04-10T10:42:28.907Z,99518.95
2018-04-10T10:43:31.389Z,99521.50
2018-04-10T10:44:33.878Z,99523.65
2018-04-10T10:45:36.353Z,99520.48
2018-04-10T10:46:38.850Z,99522.85
2018-04-10T10:47:41.336Z,99527.19
2018-04-10T10:48:43.819Z,99519.27
2018-04-10T10:49:46.301Z,99523.41
2018-04-10T10:50:48.799Z,99522.22
2018-04-10T10:51:51.320Z,99521.20
2018-04-10T10:52:53.824Z,99521.79
2018-04-10T10:53:56.309Z,99518.81
2018-04-10T10:54:58.863Z,99520.37
2018-04-10T10:56:01.334Z,99521.92
2018-04-10T10:57:03.836Z,99526.44
2018-04-10T10:58:06.330Z,99529.56
2018-04-10T10:59:08.850Z,99527.39
2018-04-10T11:00:11.360Z,99524.62
2018-04-10T11:01:13.830Z,99524.81
2018-04-10T11:02:16.460Z,99523.61
2018-04-10T11:03:18.927Z,99513.73
2018-04-10T11:04:21.407Z,99523.98
2018-04-10T11:05:23.954Z,99519.23
2018-04-10T11:06:26.439Z,99520.61
2018-04-10T11:07:28.963Z,99519.41
2018-04-10T11:08:31.454Z,99517.23
2018-04-10T11:09:33.941Z,99519.39
2018-04-10T11:10:36.411Z,99513.65
2018-04-10T11:11:38.886Z,99519.95
2018-04-10T11:12:41.374Z,99514.81
2018-04-10T11:13:43.896Z,99513.63
2018-04-10T11:14:46.388Z,99512.42
2018-04-10T11:15:48.863Z,99511.63
2018-04-10T11:16:51.396Z,99512.19
2018-04-10T11:17:53.905Z,99510.00
2018-04-10T11:18:56.392Z,99507.61
2018-04-10T11:19:58.889Z,99515.26
2018-04-10T11:21:01.358Z,99513.84
2018-04-10T11:22:03.867Z,99510.27
2018-04-10T11:23:06.356Z,99515.36
2018-04-10T11:24:08.929Z,99519.63
2018-04-10T11:25:11.469Z,99510.30
2018-04-10T11:26:13.962Z,99511.25
2018-04-10T11:27:16.442Z,99518.34
2018-04-10T11:28:18.941Z,99510.42
2018-04-10T11:29:21.429Z,99509.23
2018-04-10T11:30:23.935Z,99509.97
2018-04-10T11:31:26.530Z,99513.13
2018-04-10T11:32:29.002Z,99507.17
2018-04-10T11:33:31.514Z,99512.88
2018-04-10T11:34:34.001Z,99509.54
2018-04-10T11:35:36.491Z,99500.64
2018-04-10T11:36:39.016Z,99493.53
2018-04-10T11:37:41.504Z,99495.09
2018-04-10T11:38:44.034Z,99497.45
2018-04-10T11:39:46.527Z,99499.63
2018-04-10T11:40:49.006Z,99483.99
2018-04-10T11:41:51.493Z,99489.70
2018-04-10T11:42:54.017Z,99487.48
2018-04-10T11:43:56.525Z,99482.73
2018-04-10T11:44:59.022Z,99479.55
2018-04-10T11:46:01.505Z,99476.58
2018-04-10T11:47:03.988Z,99477.73
2018-04-10T11:48:06.566Z,99482.06
2018-04-10T11:49:09.112Z,99474.55
2018-04-10T11:50:11.586Z,99474.92
2018-04-10T11:51:14.083Z,99472.28
2018-04-10T11:52:16.599Z,99474.83
2018-04-10T11:53:19.165Z,99471.85
2018-04-10T11:54:21.663Z,99480.53
2018-04-10T11:55:24.163Z,99480.53
2018-04-10T11:56:26.631Z,99480.13
2018-04-10T11:57:29.114Z,99477.95
2018-04-10T11:58:31.582Z,99476.18
2018-04-10T11:59:34.070Z,99482.86
2018-04-10T12:00:36.565Z,99468.05
2018-04-10T12:01:39.127Z,99471.80
2018-04-10T12:02:41.627Z,99472.56
2018-04-10T12:03:44.130Z,99474.52
2018-04-10T12:04:46.636Z,99469.19
2018-04-10T12:05:49.222Z,99467.02
2018-04-10T12:06:51.704Z,99467.02
2018-04-10T12:07:54.175Z,99461.28
2018-04-10T12:08:56.669Z,99459.50
2018-04-10T12:09:59.201Z,99461.06
2018-04-10T12:11:01.733Z,99451.41
2018-04-10T12:12:04.247Z,99453.39
2018-04-10T12:13:06.733Z,99457.14
2018-04-10T12:14:09.222Z,99451.83
2018-04-10T12:15:11.707Z,99460.73
2018-04-10T12:16:14.194Z,99453.64
2018-04-10T12:17:16.703Z,99452.66
2018-04-10T12:18:19.213Z,99453.06
2018-04-10T12:19:21.727Z,99460.97
2018-04-10T12:20:24.248Z,99456.83
2018-04-10T12:21:26.752Z,99459.01
2018-04-10T12:22:29.251Z,99457.45
2018-04-10T12:23:31.733Z,99454.10
2018-04-10T12:24:34.212Z,99455.08
2018-04-10T12:25:36.758Z,99454.89
2018-04-10T12:26:39.283Z,99454.31